• Join FlightAware (Why Join?)
  • Login
  • US Flag 
 
03:41AM EST


 

Airport Tracker/Info


-or-


 

Live Flight TrackerFlight Track Log ✈ EGF3653 ✈ 24-Apr-2013 ✈ KIAH - KLAX

Flight Track Log - Related Links

Times and Time Zones

All times are in EDT time to prevent confusion due to time zone crossing. See the EGF3653 flight status page for this flight to view local times or setup timezone preferences in your user account.

Time Position Orientation Groundspeed Altitude Reporting Facility
EDT Latitude Longitude Course Direction KTS MPH feet Rate Location/Type
03:27PM 29.9817 -95.3556 277° West 153 176 600  Level Houston Center
03:27PM 29.9894 -95.3956 283° West 202 232 2,000 1,740 Climbing Houston Center
03:28PM 29.9775 -95.4719 260° West 268 308 3,700 2,340 Climbing Houston Center
03:29PM 29.9869 -95.5450 279° West 259 298 6,500 2,760 Climbing Houston Center
03:30PM 30.0011 -95.6272 281° West 261 300 9,100 2,160 Climbing Houston Center
03:31PM 30.0446 -95.9350 276° West  Level FlightAware Approximate
03:31PM 30.0161 -95.7169 281° West 276 318 11,000  Level Houston Center
03:32PM 30.0669 -96.0527 277° West  Level FlightAware Approximate
03:32PM 30.0317 -95.8186 280° West 319 367 12,300  Level Houston Center
03:33PM 30.0494 -95.9328 280° West 359 413 13,700 1,500 Climbing Houston Center
03:34PM 30.0694 -96.0597 280° West 377 434 15,400 1,560 Climbing Houston Center
03:35PM 30.0889 -96.1803 281° West 383 441 17,000 1,620 Climbing Houston Center
03:36PM 30.1106 -96.3272 280° West 388 447 18,800 1,560 Climbing Houston Center
03:37PM 30.1286 -96.4397 281° West 388 447 20,300 1,500 Climbing Houston Center
03:38PM 30.1472 -96.5678 280° West 396 456 21,900 1,440 Climbing Houston Center
03:40PM 30.1706 -96.7142 280° West 393 452 23,300 1,140 Climbing Houston Center
03:41PM 30.1894 -96.8464 279° West 407 468 24,300 960 Climbing Houston Center
03:42PM 30.2097 -96.9789 280° West 414 476 25,300 960 Climbing Houston Center
03:43PM 30.2292 -97.1150 279° West 422 486 26,300 960 Climbing Houston Center
03:44PM 30.2489 -97.2489 280° West 418 481 27,300 960 Climbing Houston Center
03:45PM 30.2689 -97.3833 280° West 418 481 28,400 1,080 Climbing Houston Center
03:46PM 30.2878 -97.5144 280° West 411 473 29,600 960 Climbing Houston Center
03:47PM 30.3061 -97.6447 279° West 407 468 30,400 720 Climbing Houston Center
03:48PM 30.3281 -97.7986 279° West 409 471 31,200 720 Climbing Houston Center
03:49PM 30.3458 -97.9289 279° West 406 467 32,000 660 Climbing Houston Center
03:50PM 30.3653 -98.0617 280° West 412 474 32,600 600 Climbing Houston Center
03:51PM 30.3842 -98.1944 279° West 413 475 33,300 600 Climbing Houston Center
03:52PM 30.4017 -98.3269 279° West 413 475 33,900 540 Climbing Houston Center
03:53PM 30.4208 -98.4597 280° West 414 476 34,500 540 Climbing Houston Center
03:54PM 30.4375 -98.5911 278° West 408 470 35,100 540 Climbing Houston Center
03:55PM 30.4556 -98.7208 279° West 406 467 35,700 420 Climbing Houston Center
03:56PM 30.4769 -98.8728 279° West 408 470 36,000 120 Climbing Houston Center
03:57PM 30.4939 -99.0042 279° West 411 473 36,000  Level Houston Center
03:58PM 30.5117 -99.1375 279° West 414 476 36,000  Level Houston Center
03:59PM 30.5308 -99.2775 279° West 409 471 36,000  Level Houston Center
04:00PM 30.5469 -99.4056 278° West 405 466 36,000  Level Houston Center
04:01PM 30.5639 -99.5342 279° West 404 465 36,000  Level Houston Center
04:02PM 30.5794 -99.6636 278° West 405 466 36,000  Level Houston Center
04:03PM 30.5967 -99.7917 279° West 405 466 36,000  Level Houston Center
04:04PM 30.6150 -99.9464 278° West 405 466 36,000  Level Houston Center
04:06PM 30.6319 -100.0873 278° West  Level FlightAware Approximate
04:06PM 30.6458 -100.2011 278° West 397 457 36,000  Level Houston Center
04:07PM 30.6614 -100.3306 278° West 407 468 36,000  Level Houston Center
04:09PM 30.6778 -100.4589 278° West 411 473 36,000  Level Houston Center
04:10PM 30.6944 -100.6133 277° West 406 467 36,000  Level Houston Center
04:11PM 30.7097 -100.7433 278° West 401 461 36,000  Level Houston Center
04:12PM 30.7261 -100.8728 278° West 408 470 36,000  Level Houston Center
04:13PM 30.7386 -101.0050 276° West 412 474 36,000  Level Houston Center
04:14PM 30.7550 -101.1339 278° West 411 473 36,000  Level Houston Center
04:15PM 30.7747 -101.2861 279° West 403 464 36,000  Level Houston Center
04:16PM 30.7875 -101.4172 277° West 408 470 36,000  Level Houston Center
04:17PM 30.8006 -101.5494 277° West 411 473 36,000  Level Houston Center
04:18PM 30.8197 -101.7111 278° West 408 470 36,000  Level Albuquerque Center
04:19PM 30.8342 -101.8431 277° West 409 471 36,000  Level Albuquerque Center
04:20PM 30.8475 -101.9742 277° West 409 471 36,000  Level Albuquerque Center
04:21PM 30.8614 -102.1058 277° West 408 470 36,000  Level Albuquerque Center
04:22PM 30.8756 -102.2367 277° West 407 468 36,000  Level Albuquerque Center
04:23PM 30.8922 -102.3961 277° West 409 471 36,000  Level Albuquerque Center
04:24PM 30.9050 -102.5281 276° West 409 471 36,000  Level Albuquerque Center
04:25PM 30.9189 -102.6592 277° West 407 468 36,000  Level Albuquerque Center
04:26PM 30.9325 -102.7914 277° West 408 470 36,000  Level Albuquerque Center
04:27PM 30.9464 -102.9225 277° West 409 471 36,000  Level Albuquerque Center
04:28PM 30.9714 -103.0508 283° West 407 468 36,000  Level Albuquerque Center
04:29PM 31.0075 -103.1794 288° West 414 476 36,000  Level Albuquerque Center
04:30PM 31.0503 -103.3325 288° West 415 478 36,000  Level Albuquerque Center
04:31PM 31.0839 -103.4583 287° West 411 473 36,000  Level Albuquerque Center
04:33PM 31.1186 -103.5867 288° West 413 475 36,000  Level Albuquerque Center
04:34PM 31.1531 -103.7147 287° West 413 475 36,000  Level Albuquerque Center
04:35PM 31.1864 -103.8378 288° West 414 476 36,000  Level Albuquerque Center
04:36PM 31.2214 -103.9647 288° West 413 475 36,000  Level Albuquerque Center
04:37PM 31.2622 -104.1189 287° West 416 479 36,000  Level Albuquerque Center
04:38PM 31.2956 -104.2458 287° West 414 476 36,000  Level Albuquerque Center
04:39PM 31.3297 -104.3739 287° West 414 476 36,000  Level Albuquerque Center
04:40PM 31.3628 -104.5014 287° West 414 476 36,000  Level Albuquerque Center
04:41PM 31.3975 -104.6278 288° West 413 475 36,000  Level Albuquerque Center
04:42PM 31.4364 -104.7808 287° West 412 474 36,000  Level Albuquerque Center
04:43PM 31.4694 -104.9081 287° West 413 475 36,000  Level Albuquerque Center
04:44PM 31.5031 -105.0350 287° West 412 474 36,000  Level Albuquerque Center
04:45PM 31.5353 -105.1619 287° West 411 473 36,000  Level Albuquerque Center
04:46PM 31.5678 -105.2892 287° West 411 473 36,000  Level Albuquerque Center
04:47PM 31.6069 -105.4444 287° West 415 478 36,000  Level Albuquerque Center
04:48PM 31.6383 -105.5714 286° West 409 471 36,000  Level Albuquerque Center
04:49PM 31.6717 -105.6992 287° West 411 473 36,000  Level Albuquerque Center
04:50PM 31.7028 -105.8269 286° West 409 471 36,000  Level Albuquerque Center
04:51PM 31.7350 -105.9556 286° West 410 472 36,000  Level Albuquerque Center
04:52PM 31.7736 -106.1094 286° West 411 473 36,000  Level Albuquerque Center
04:53PM 31.8069 -106.2369 287° West 409 471 36,000  Level Albuquerque Center
04:54PM 31.8236 -106.3681 279° West 409 471 36,000  Level Albuquerque Center
04:55PM 31.8342 -106.5000 275° West 407 468 36,000  Level Albuquerque Center
04:56PM 31.8425 -106.6308 274° West 405 466 36,000  Level Albuquerque Center
04:57PM 31.8528 -106.7633 275° West 406 467 36,000  Level Albuquerque Center
04:58PM 31.8647 -106.9197 275° West 400 460 36,000  Level Albuquerque Center
04:59PM 31.8744 -107.0522 275° West 404 465 36,000  Level Albuquerque Center
05:00PM 31.9056 -107.1819 286° West 414 476 36,000  Level Albuquerque Center
05:01PM 31.9444 -107.3103 290° West 414 476 36,000  Level Albuquerque Center
05:02PM 31.9825 -107.4389 289° West 414 476 36,000  Level Albuquerque Center
05:04PM 32.0194 -107.5678 289° West 415 478 36,000  Level Albuquerque Center
05:05PM 32.0578 -107.6956 290° West 413 475 36,000  Level Albuquerque Center
05:06PM 32.1042 -107.8500 290° West 414 476 36,000  Level Albuquerque Center
05:07PM 32.1408 -107.9769 289° West 411 473 36,000  Level Albuquerque Center
05:08PM 32.1783 -108.1050 289° West 411 473 36,000  Level Albuquerque Center
05:09PM 32.2161 -108.2325 289° West 411 473 36,000  Level Albuquerque Center
05:10PM 32.2519 -108.3603 288° West 410 472 36,000  Level Albuquerque Center
05:11PM 32.2917 -108.4947 289° West 413 475 36,000  Level Albuquerque Center
05:12PM 32.3286 -108.6214 289° West 411 473 36,000  Level Albuquerque Center
05:13PM 32.3642 -108.7500 288° West 412 474 36,000  Level Albuquerque Center
05:14PM 32.4086 -108.9036 289° West 413 475 36,000  Level Albuquerque Center
05:15PM 32.4453 -109.0333 289° West 415 478 36,000  Level Albuquerque Center
05:16PM 32.4822 -109.1622 289° West 414 476 36,000  Level Albuquerque Center
05:17PM 32.5192 -109.2922 289° West 415 478 36,000  Level Albuquerque Center
05:18PM 32.5553 -109.4217 288° West 415 478 36,000  Level Albuquerque Center
05:19PM 32.5978 -109.5778 288° West 416 479 36,000  Level Albuquerque Center
05:20PM 32.6344 -109.7075 289° West 417 480 36,100  Climbing Albuquerque Center
05:21PM 32.6722 -109.8406 289° West 425 489 36,000 -60 Descending Albuquerque Center
05:22PM 32.7061 -109.9683 288° West 414 476 36,000  Level Albuquerque Center
05:23PM 32.7450 -110.0997 289° West 419 482 36,000  Level Albuquerque Center
05:24PM 32.7800 -110.2306 288° West 419 482 36,000  Level Albuquerque Center
05:25PM 32.8219 -110.3850 288° West 413 475 36,000  Level Albuquerque Center
05:26PM 32.8567 -110.5150 288° West 415 478 36,000  Level Albuquerque Center
05:28PM 32.9294 -110.7833 288° West 417 480 36,000  Level Albuquerque Center
05:29PM 32.9672 -110.9128 289° West 416 479 36,000  Level Albuquerque Center
05:30PM 33.0100 -111.0383 292° West 410 472 36,000  Level Albuquerque Center
05:31PM 33.0511 -111.1678 291° West 415 478 36,000  Level Albuquerque Center
05:32PM 33.1003 -111.3239 291° West 420 483 36,000  Level Albuquerque Center
05:34PM 33.1408 -111.4539 290° West 418 481 36,000  Level Albuquerque Center
05:35PM 33.1814 -111.5847 290° West 420 483 36,000  Level Albuquerque Center
05:36PM 33.2236 -111.7183 291° West 426 490 36,000 -60 Level Albuquerque Center
05:37PM 33.2642 -111.8506 290° West 425 489 35,900  Descending Albuquerque Center
05:38PM 33.3047 -111.9817 290° West 421 484 36,000  Climbing Albuquerque Center
05:39PM 33.3453 -112.1136 290° West 421 484 36,000  Level Albuquerque Center
05:40PM 33.3856 -112.2469 290° West 423 487 36,000  Level Albuquerque Center
05:41PM 33.4353 -112.4078 290° West 427 491 36,000  Level Albuquerque Center
05:42PM 33.4761 -112.5442 290° West 433 498 36,000  Level Albuquerque Center
05:43PM 33.5200 -112.6875 290° West 430 495 36,000  Level Albuquerque Center
05:44PM 33.5614 -112.8236 290° West 434 499 36,000  Level Albuquerque Center
05:45PM 33.6017 -112.9611 289° West 438 504 36,000  Level Albuquerque Center
05:46PM 33.6428 -113.0989 290° West 439 505 36,000  Level Albuquerque Center
05:47PM 33.6906 -113.2581 290° West 440 506 36,000  Level Albuquerque Center
05:48PM 33.7317 -113.3969 290° West 441 507 36,000  Level Albuquerque Center
05:49PM 33.7728 -113.5378 289° West 444 511 36,000  Level Albuquerque Center
05:50PM 33.8144 -113.6786 290° West 447 514 36,000  Level Albuquerque Center
05:51PM 33.8550 -113.8206 289° West 449 517 36,000  Level Albuquerque Center
05:52PM 33.8931 -113.9644 288° West 450 518 36,000  Level Albuquerque Center
05:53PM 33.9128 -114.1411 278° West 447 514 36,000  Level Albuquerque Center
05:54PM 33.9314 -114.2931 278° West 447 514 36,000  Level Albuquerque Center
05:55PM 33.9508 -114.4406 279° West 448 516 36,000  Level Albuquerque Center
05:56PM 33.9575 -114.4831 281° West 449 517 36,000  Level Los Angeles Center
05:57PM 33.9761 -114.6314 279° West 449 517 36,000  Level Los Angeles Center
05:58PM 33.9989 -114.8081 279° West 448 516 36,000  Level Los Angeles Center
05:59PM 34.0169 -114.9572 278° West 449 517 36,000  Level Los Angeles Center
06:00PM 34.0344 -115.1069 278° West 452 520 36,000  Level Los Angeles Center
06:01PM 34.0536 -115.2569 279° West 455 524 36,000  Level Los Angeles Center
06:02PM 34.0700 -115.4089 277° West 459 528 36,000 -900 Level Los Angeles Center
06:03PM 34.0925 -115.5947 278° West 468 539 34,200 -1,680 Descending Los Angeles Center
06:04PM 34.1089 -115.7519 277° West 473 544 32,500 -1,680 Descending Los Angeles Center
06:05PM 34.0936 -115.9019 263° West 454 522 30,800 -1,680 Descending Los Angeles Center
06:06PM 34.0722 -116.0483 260° West 449 517 29,100 -1,680 Descending Los Angeles Center
06:07PM 34.0489 -116.1933 259° West 443 510 27,400 -1,800 Descending Los Angeles Center
06:08PM 34.0236 -116.3653 260° West 438 504 25,400 -1,680 Descending Los Angeles Center
06:09PM 34.0039 -116.5047 260° West 428 493 24,000 -720 Descending Los Angeles Center
06:10PM 33.9931 -116.6439 265° West 421 484 24,000 -960 Level Los Angeles Center
06:11PM 33.9817 -116.7853 264° West 425 489 21,900 -2,220 Descending Los Angeles Center
06:12PM 33.9669 -116.9567 264° West 431 496 19,000 -2,880 Descending Los Angeles Center
06:13PM 33.9667 -117.0333 270° West 409 471 17,600 -1,380 Descending Southern California TRACON
06:14PM 33.9500 -117.1667 261° West 359 413 17,000 -300 Descending Southern California TRACON
06:15PM 33.9333 -117.2833 260° West 359 413 17,000 -600 Level Southern California TRACON
06:16PM 33.9667 -117.4000 289° West 376 433 15,800 -1,320 Descending Southern California TRACON
06:17PM 33.9833 -117.5167 280° West 336 387 14,400 -1,800 Descending Southern California TRACON
06:18PM 34.0000 -117.6167 281° West 379 436 12,300 -2,100 Descending Southern California TRACON
06:19PM 34.0167 -117.7333 280° West 297 342 10,200 -1,800 Descending Southern California TRACON
06:20PM 34.0167 -117.8333 270° West 300 345 8,700 -1,080 Descending Southern California TRACON
06:21PM 34.0000 -117.9167 256° West 296 341 8,100 -1,080 Descending Southern California TRACON
06:22PM 33.9833 -118.0167 259° West 286 329 6,600 -1,500 Descending Southern California TRACON
06:23PM 33.9833 -118.1000 270° West 242 278 5,200 -1,320 Descending Southern California TRACON
06:24PM 33.9761 -118.1650 262° West 241 277 4,100 -1,200 Descending Los Angeles Center